Time;durP1;ratioP1;P1;durP2;ratioP2;P2;SDS_P1;SDS_P2;PMS_P1;PMS_P2;Temp;Humidity;BMP_temperature;BMP_pressure;BME280_temperature;BME280_humidity;BME280_pressure;Samples;Min_cycle;Max_cycle;Signal;HPM_P1;HPM_P2
2023/12/12 00:00:28;;;;;;;30.00;16.77;;;;;;;8.18;76.73;101385.22;5055916;28;20029;-84
2023/12/12 00:02:53;;;;;;;32.63;16.90;;;;;;;8.07;77.12;101353.22;5069601;28;20110;-83
2023/12/12 00:05:20;;;;;;;30.30;16.17;;;;;;;7.92;77.20;101334.81;5055433;28;20079;-84
2023/12/12 00:07:46;;;;;;;33.10;17.48;;;;;;;8.03;77.24;101366.81;5034572;28;20038;-84
2023/12/12 00:10:14;;;;;;;32.45;16.55;;;;;;;7.95;77.41;101367.13;5037302;28;20092;-85
2023/12/12 00:12:44;;;;;;;31.58;16.83;;;;;;;7.92;77.17;101374.72;5058284;28;20028;-85
2023/12/12 00:15:10;;;;;;;32.85;17.35;;;;;;;7.79;77.19;101352.88;5057998;28;20029;-85
2023/12/12 00:17:37;;;;;;;;;;;;;;;8.16;76.97;101406.81;5039168;28;20028;-85
2023/12/12 00:20:09;;;;;;;31.10;16.33;;;;;;;7.87;77.32;101356.94;5090197;28;19946;-85
2023/12/12 00:22:36;;;;;;;27.90;15.25;;;;;;;7.67;77.36;101319.09;5048723;28;20518;-85
2023/12/12 00:25:03;;;;;;;29.75;15.77;;;;;;;8.00;77.44;101388.28;5068159;28;20037;-86
2023/12/12 00:27:29;;;;;;;28.92;15.48;;;;;;;8.01;77.28;101373.59;5068789;28;20029;-85
2023/12/12 00:29:55;;;;;;;30.92;16.00;;;;;;;7.65;77.55;101324.16;5068955;28;20047;-85
2023/12/12 00:32:21;;;;;;;32.13;16.30;;;;;;;7.69;77.11;101317.50;5054291;28;20024;-85
2023/12/12 00:34:47;;;;;;;31.48;16.05;;;;;;;7.87;76.90;101349.16;5051159;28;20491;-85
2023/12/12 00:37:12;;;;;;;31.17;16.42;;;;;;;7.77;76.92;101342.38;5049578;28;20487;-86
2023/12/12 00:39:39;;;;;;;31.13;16.30;;;;;;;7.68;77.15;101331.28;5060182;28;20039;-85
2023/12/12 00:42:05;;;;;;;29.13;15.80;;;;;;;7.95;76.81;101382.72;5048492;28;20036;-85
2023/12/12 00:44:31;;;;;;;33.00;16.67;;;;;;;8.10;76.85;101403.75;5055582;28;20423;-86
2023/12/12 00:46:57;;;;;;;33.75;17.15;;;;;;;7.83;77.19;101358.44;5052178;28;20507;-85
2023/12/12 00:49:22;;;;;;;29.85;15.88;;;;;;;7.89;76.87;101366.66;5062534;28;20024;-84
2023/12/12 00:51:48;;;;;;;29.60;16.52;;;;;;;8.01;76.83;101386.59;5069175;28;20032;-85
2023/12/12 00:54:14;;;;;;;31.67;17.35;;;;;;;7.97;76.76;101369.84;5031187;28;20040;-85
2023/12/12 00:56:39;;;;;;;31.42;15.93;;;;;;;7.83;76.83;101347.09;5065753;28;20111;-84
2023/12/12 00:59:05;;;;;;;31.00;16.45;;;;;;;8.11;76.40;101389.09;5058409;28;20099;-84
2023/12/12 01:01:31;;;;;;;31.30;16.55;;;;;;;8.09;76.59;101404.56;5048922;28;20103;-86
2023/12/12 01:03:56;;;;;;;30.75;16.30;;;;;;;7.50;77.08;101294.44;5044311;28;20055;-86
2023/12/12 01:06:23;;;;;;;30.38;15.57;;;;;;;7.75;77.00;101344.84;5076899;28;20032;-84
2023/12/12 01:08:49;;;;;;;33.47;17.13;;;;;;;7.95;77.23;101363.63;5068002;28;20016;-86
2023/12/12 01:11:15;;;;;;;31.02;16.20;;;;;;;7.74;76.90;101342.13;5050237;28;20036;-84
2023/12/12 01:13:41;;;;;;;30.35;16.48;;;;;;;8.04;77.05;101373.78;5048985;28;20051;-86
2023/12/12 01:16:07;;;;;;;30.27;17.05;;;;;;;7.73;76.88;101307.44;5058951;28;20021;-85
2023/12/12 01:18:34;;;;;;;31.83;15.63;;;;;;;7.94;77.16;101343.63;5034368;28;20112;-86
2023/12/12 01:21:02;;;;;;;29.13;15.98;;;;;;;7.81;77.21;101317.47;5058286;28;20412;-86
2023/12/12 01:23:49;;;;;;;28.27;14.98;;;;;;;8.04;76.79;101366.00;5055945;28;20032;-86
2023/12/12 01:26:15;;;;;;;30.30;16.27;;;;;;;7.94;76.99;101367.94;5054433;28;20028;-84
2023/12/12 01:28:40;;;;;;;30.73;15.93;;;;;;;7.54;77.14;101301.66;5054846;28;20108;-86
2023/12/12 01:31:06;;;;;;;27.33;15.23;;;;;;;7.85;76.87;101337.72;5054138;28;20081;-84
2023/12/12 01:33:32;;;;;;;28.95;15.43;;;;;;;7.77;76.70;101324.19;5049308;28;20032;-86
2023/12/12 01:35:57;;;;;;;30.30;16.08;;;;;;;7.62;76.84;101302.22;5055212;28;20021;-85
2023/12/12 01:38:24;;;;;;;31.95;16.17;;;;;;;7.87;76.76;101341.34;5042803;28;20067;-85
2023/12/12 01:40:50;;;;;;;29.77;15.90;;;;;;;7.80;76.96;101320.88;5072866;28;20103;-84
2023/12/12 01:43:24;;;;;;;29.60;15.75;;;;;;;7.99;76.97;101355.25;5041539;28;20467;-84
2023/12/12 01:45:50;;;;;;;32.72;16.55;;;;;;;7.53;76.66;101261.78;5026388;28;20441;-84
2023/12/12 01:48:16;;;;;;;29.70;15.70;;;;;;;7.51;77.26;101260.78;5054828;28;20078;-84
2023/12/12 01:50:42;;;;;;;27.77;15.32;;;;;;;7.93;76.85;101326.19;5059266;28;20491;-85
2023/12/12 01:53:08;;;;;;;26.45;14.57;;;;;;;7.72;76.75;101289.13;5070822;28;20480;-85
2023/12/12 01:55:36;;;;;;;25.80;15.00;;;;;;;7.72;76.78;101295.22;5027861;28;20101;-85
2023/12/12 01:58:01;;;;;;;28.52;15.95;;;;;;;7.74;76.82;101296.22;5077404;28;20415;-85
2023/12/12 02:00:28;;;;;;;25.65;14.15;;;;;;;7.57;76.63;101267.19;5064813;28;20036;-85
2023/12/12 02:02:53;;;;;;;27.88;15.40;;;;;;;7.75;76.37;101312.75;5031389;28;20780;-86
2023/12/12 02:05:20;;;;;;;25.98;15.27;;;;;;;7.88;76.74;101341.47;5047166;28;20034;-85
2023/12/12 02:07:45;;;;;;;;;;;;;;;7.98;76.91;101373.34;5071198;28;20055;-84
2023/12/12 02:10:11;;;;;;;26.75;14.27;;;;;;;7.97;76.56;101372.44;5060929;28;20375;-85
2023/12/12 02:12:37;;;;;;;28.40;15.18;;;;;;;7.93;76.74;101366.09;5054549;28;20021;-85
2023/12/12 02:15:02;;;;;;;27.63;15.38;;;;;;;7.88;76.78;101351.88;5058905;28;20040;-85
2023/12/12 02:17:28;;;;;;;27.88;14.82;;;;;;;7.98;76.55;101362.94;5044330;28;20043;-85
2023/12/12 02:19:54;;;;;;;27.48;14.63;;;;;;;7.99;76.46;101362.16;5060021;28;20111;-85
2023/12/12 02:22:19;;;;;;;27.70;15.05;;;;;;;7.76;76.68;101317.16;5041108;28;20029;-85
2023/12/12 02:24:45;;;;;;;28.25;14.85;;;;;;;7.84;76.50;101330.72;5070810;28;20040;-84
2023/12/12 02:27:11;;;;;;;26.75;14.50;;;;;;;7.88;76.90;101338.88;5054995;28;20063;-85
2023/12/12 02:29:37;;;;;;;27.98;15.00;;;;;;;7.91;76.77;101348.56;5038498;28;20504;-85
2023/12/12 02:32:03;;;;;;;23.65;13.75;;;;;;;7.87;77.14;101356.94;5052052;28;20033;-84
2023/12/12 02:34:29;;;;;;;25.00;14.20;;;;;;;7.89;76.77;101357.97;5048976;28;20056;-84
2023/12/12 02:36:55;;;;;;;26.15;14.50;;;;;;;7.73;76.91;101315.22;5030995;28;20696;-84
2023/12/12 02:39:20;;;;;;;26.08;14.60;;;;;;;7.87;76.93;101352.69;5045876;28;20025;-83
2023/12/12 02:41:46;;;;;;;24.75;14.10;;;;;;;7.92;76.69;101345.19;5048339;28;20060;-83
2023/12/12 02:44:12;;;;;;;25.80;13.98;;;;;;;7.47;76.89;101261.34;5049885;28;20039;-84
2023/12/12 02:46:39;;;;;;;26.52;14.60;;;;;;;7.57;76.83;101285.41;5051932;28;20028;-85
2023/12/12 02:49:06;;;;;;;25.27;13.85;;;;;;;7.76;76.64;101298.94;5047978;28;20447;-86
2023/12/12 02:51:31;;;;;;;;;;;;;;;7.90;76.73;101321.69;5064320;28;20499;-84
2023/12/12 02:53:57;;;;;;;25.23;14.35;;;;;;;7.87;76.67;101315.34;5063529;28;19948;-84
2023/12/12 02:56:22;;;;;;;25.67;13.90;;;;;;;7.92;76.61;101321.81;5030438;28;20025;-84
2023/12/12 02:58:48;;;;;;;25.15;14.27;;;;;;;7.84;76.91;101323.81;5045024;28;20028;-83
2023/12/12 03:01:14;;;;;;;23.92;13.88;;;;;;;7.86;77.07;101319.66;5051322;28;20017;-83
2023/12/12 03:03:39;;;;;;;26.08;14.05;;;;;;;7.66;76.77;101278.25;5034052;28;20416;-85
2023/12/12 03:06:07;;;;;;;25.38;13.60;;;;;;;7.83;76.85;101310.69;5045040;28;20083;-84
2023/12/12 03:08:32;;;;;;;25.80;14.15;;;;;;;7.83;76.96;101314.22;5045983;28;20029;-84
2023/12/12 03:10:58;;;;;;;23.63;13.30;;;;;;;7.36;76.62;101238.81;5045015;28;20059;-85
2023/12/12 03:13:24;;;;;;;26.35;14.27;;;;;;;7.82;76.69;101325.41;5032343;28;20033;-85
2023/12/12 03:15:49;;;;;;;25.83;13.98;;;;;;;7.85;76.65;101319.53;5047491;28;20020;-85
2023/12/12 03:18:17;;;;;;;24.75;14.35;;;;;;;7.47;76.62;101261.34;5038279;28;20135;-84
2023/12/12 03:20:43;;;;;;;27.20;14.02;;;;;;;7.81;76.76;101309.69;5050048;28;20033;-84
2023/12/12 03:23:09;;;;;;;24.70;13.48;;;;;;;7.71;76.31;101295.13;5050022;28;20025;-85
2023/12/12 03:25:35;;;;;;;25.77;13.75;;;;;;;7.72;76.62;101283.91;5038654;28;20035;-85
2023/12/12 03:28:02;;;;;;;27.80;14.23;;;;;;;7.86;76.45;101319.66;5050825;28;20131;-84
2023/12/12 03:30:37;;;;;;;26.40;14.68;;;;;;;7.80;76.48;101308.78;5051518;28;20472;-85
2023/12/12 03:33:03;;;;;;;25.13;13.52;;;;;;;7.69;76.58;101297.59;5034401;28;20026;-84
2023/12/12 03:35:28;;;;;;;23.52;13.15;;;;;;;7.61;76.41;101295.22;5052141;28;20085;-84
2023/12/12 03:37:56;;;;;;;25.05;13.43;;;;;;;7.82;76.60;101334.91;5049395;28;20033;-85
2023/12/12 03:40:23;;;;;;;29.40;15.40;;;;;;;7.80;76.78;101327.00;5038790;28;20028;-84
2023/12/12 03:42:49;;;;;;;24.35;13.48;;;;;;;7.79;76.59;101326.88;5054284;28;20085;-85
2023/12/12 03:45:31;;;;;;;25.75;13.55;;;;;;;7.75;76.79;101321.47;5073303;28;20037;-84
2023/12/12 03:48:34;;;;;;;25.30;13.40;;;;;;;7.85;76.52;101337.72;5064508;28;20031;-84
2023/12/12 03:51:00;;;;;;;26.45;14.30;;;;;;;7.76;76.51;101330.16;5074628;28;20029;-85
2023/12/12 03:53:26;;;;;;;25.27;13.65;;;;;;;7.79;76.73;101339.88;5074209;28;20033;-84
2023/12/12 03:55:51;;;;;;;24.95;13.65;;;;;;;7.78;76.54;101336.38;5074741;28;20031;-85
2023/12/12 03:58:17;;;;;;;25.25;13.68;;;;;;;7.69;76.89;101325.31;5076076;28;20025;-85
2023/12/12 04:00:43;;;;;;;25.42;13.88;;;;;;;7.63;76.70;101330.03;5062950;28;20021;-85
2023/12/12 04:03:09;;;;;;;28.08;15.13;;;;;;;7.79;76.73;101358.06;5064619;28;20028;-85
2023/12/12 04:05:34;;;;;;;24.30;13.05;;;;;;;7.66;76.56;101338.03;5074611;28;20040;-84
2023/12/12 04:08:00;;;;;;;27.25;14.38;;;;;;;7.81;76.59;101366.88;5073103;28;20036;-85
2023/12/12 04:10:26;;;;;;;28.15;14.48;;;;;;;7.77;76.93;101376.16;5059909;28;20037;-85
2023/12/12 04:12:51;;;;;;;25.08;13.77;;;;;;;7.45;76.68;101322.69;5046725;28;20029;-85
2023/12/12 04:15:17;;;;;;;24.02;13.15;;;;;;;7.60;77.13;101351.50;5045482;28;20037;-85
2023/12/12 04:17:43;;;;;;;23.15;13.10;;;;;;;7.57;76.83;101330.47;5041184;28;20511;-85
2023/12/12 04:20:09;;;;;;;24.20;13.45;;;;;;;7.75;76.83;101370.84;5035493;28;20481;-85
2023/12/12 04:22:34;;;;;;;;;;;;;;;7.73;77.00;101364.63;5036795;28;20032;-85
2023/12/12 04:25:00;;;;;;;26.15;13.65;;;;;;;7.69;76.96;101359.09;5029668;28;20536;-85
2023/12/12 04:27:26;;;;;;;24.15;13.40;;;;;;;7.22;76.85;101274.19;5046142;28;20024;-85
2023/12/12 04:29:51;;;;;;;24.45;13.48;;;;;;;7.65;76.73;101351.84;5043833;28;20039;-84
2023/12/12 04:32:17;;;;;;;24.77;13.68;;;;;;;7.35;76.74;101304.59;5062840;28;20037;-85
2023/12/12 04:34:45;;;;;;;24.25;13.18;;;;;;;7.63;77.02;101361.22;5039380;28;20033;-85
2023/12/12 04:37:11;;;;;;;24.58;13.52;;;;;;;7.61;76.54;101349.81;5043323;28;20024;-86
2023/12/12 04:39:37;;;;;;;25.45;13.63;;;;;;;7.42;76.66;101325.03;5068325;28;20108;-85
2023/12/12 04:42:04;;;;;;;26.13;14.38;;;;;;;7.65;76.81;101357.94;5068532;28;20058;-85
2023/12/12 04:44:30;;;;;;;25.60;13.90;;;;;;;7.23;76.93;101288.06;5052312;28;20028;-85
2023/12/12 04:46:55;;;;;;;24.75;13.73;;;;;;;7.52;76.68;101337.94;5064688;28;20031;-85
2023/12/12 04:49:21;;;;;;;24.92;13.90;;;;;;;7.62;76.73;101357.72;5052041;28;20116;-85
2023/12/12 04:51:47;;;;;;;23.45;13.07;;;;;;;7.71;76.40;101363.63;5052037;28;20026;-86
2023/12/12 04:54:13;;;;;;;22.45;12.68;;;;;;;7.36;77.18;101310.69;5050735;28;20086;-85
2023/12/12 04:56:38;;;;;;;25.67;14.05;;;;;;;7.43;76.84;101329.44;5068743;28;20041;-85
2023/12/12 04:59:04;;;;;;;26.35;14.30;;;;;;;7.39;76.38;101323.88;5055855;28;20024;-85
2023/12/12 05:01:31;;;;;;;26.60;14.10;;;;;;;7.72;76.46;101382.69;5073038;28;20086;-85
2023/12/12 05:03:56;;;;;;;23.98;13.75;;;;;;;7.48;76.37;101328.09;5055574;28;20035;-85
2023/12/12 05:06:22;;;;;;;25.92;13.98;;;;;;;7.39;76.44;101316.09;5053831;28;20380;-86
2023/12/12 05:08:48;;;;;;;23.77;13.50;;;;;;;7.69;76.90;101375.59;5072630;28;20526;-84
2023/12/12 05:11:14;;;;;;;25.52;14.27;;;;;;;7.49;76.70;101341.97;5053854;28;20032;-84
2023/12/12 05:13:40;;;;;;;26.05;13.90;;;;;;;7.38;76.72;101316.88;5055605;28;20063;-84
2023/12/12 05:16:09;;;;;;;23.02;12.30;;;;;;;7.53;76.39;101339.75;5046111;28;20032;-85
2023/12/12 05:18:35;;;;;;;24.48;13.00;;;;;;;7.67;76.53;101366.78;5053315;28;20046;-84
2023/12/12 05:21:00;;;;;;;22.50;13.18;;;;;;;7.65;76.47;101362.25;5055405;28;20024;-83
2023/12/12 05:23:26;;;;;;;24.02;13.23;;;;;;;7.50;76.48;101338.63;5032710;28;20025;-84
2023/12/12 05:25:52;;;;;;;25.00;14.05;;;;;;;7.70;76.49;101373.88;5070005;28;20036;-84
2023/12/12 05:28:18;;;;;;;24.38;13.38;;;;;;;7.58;76.63;101354.75;5050802;28;20495;-83
2023/12/12 05:30:44;;;;;;;22.17;12.85;;;;;;;7.46;76.35;101337.47;5068749;28;20048;-84
2023/12/12 05:33:09;;;;;;;;;;;;;;;7.61;76.51;101375.81;5068087;28;20040;-86
2023/12/12 05:35:35;;;;;;;24.63;13.43;;;;;;;7.42;76.43;101361.41;5067157;28;19912;-87
2023/12/12 05:38:03;;;;;;;24.35;13.07;;;;;;;7.49;76.19;101366.31;5040435;28;20035;-84
2023/12/12 05:40:29;;;;;;;22.05;12.88;;;;;;;7.38;76.25;101323.00;5075511;28;20121;-85
2023/12/12 05:42:55;;;;;;;;;;;;;;;7.67;76.68;101376.28;5064736;28;20024;-86
2023/12/12 05:45:21;;;;;;;24.55;13.20;;;;;;;7.48;76.81;101355.78;5052109;28;19916;-86
2023/12/12 05:47:46;;;;;;;23.02;13.00;;;;;;;7.63;76.69;101369.03;5042286;28;20028;-86
2023/12/12 05:50:12;;;;;;;21.35;11.88;;;;;;;7.67;76.25;101369.38;5064008;28;20054;-85
2023/12/12 05:52:38;;;;;;;22.73;12.52;;;;;;;7.67;76.43;101366.78;5049529;28;20108;-86
2023/12/12 05:55:05;;;;;;;24.40;13.10;;;;;;;7.62;76.64;101375.00;5037258;28;20036;-85
2023/12/12 05:57:34;;;;;;;24.77;13.90;;;;;;;7.55;76.67;101358.94;5047668;28;20029;-83
2023/12/12 06:00:01;;;;;;;23.05;13.07;;;;;;;7.42;76.80;101332.81;5045537;28;20025;-83
2023/12/12 06:02:26;;;;;;;;;;;;;;;7.62;76.66;101359.41;5052354;28;20174;-84
2023/12/12 06:04:52;;;;;;;25.38;13.48;;;;;;;7.59;76.73;101346.19;5076606;28;19995;-84
2023/12/12 06:07:18;;;;;;;26.60;14.55;;;;;;;7.67;76.50;101352.88;5048144;28;20058;-84
2023/12/12 06:09:44;;;;;;;26.65;14.23;;;;;;;7.52;76.66;101335.34;5053318;28;20419;-84
2023/12/12 06:12:10;;;;;;;24.65;13.50;;;;;;;7.63;76.68;101356.94;5049969;28;20036;-84
2023/12/12 06:14:36;;;;;;;25.38;14.23;;;;;;;7.44;75.83;101327.75;5059383;28;20135;-84
2023/12/12 06:17:02;;;;;;;25.90;13.88;;;;;;;7.42;76.12;101335.44;5047538;28;20407;-84
2023/12/12 06:19:28;;;;;;;25.38;13.23;;;;;;;7.52;76.52;101361.31;5058232;28;20039;-82
2023/12/12 06:21:54;;;;;;;27.55;14.38;;;;;;;7.58;76.76;101379.09;5079393;28;20032;-83
2023/12/12 06:24:21;;;;;;;25.73;14.45;;;;;;;7.52;76.54;101384.72;5072183;28;20036;-83
2023/12/12 06:26:46;;;;;;;;;;;;;;;7.61;76.54;101381.91;5050962;28;20035;-82
2023/12/12 06:29:13;;;;;;;25.25;13.35;;;;;;;7.11;76.66;101301.00;5078606;28;20295;-83
2023/12/12 06:31:39;;;;;;;27.13;14.13;;;;;;;7.48;76.85;101371.38;5048523;28;20503;-85
2023/12/12 06:34:05;;;;;;;;;;;;;;;7.58;76.71;101385.94;5043402;28;20657;-83
2023/12/12 06:36:31;;;;;;;26.50;14.05;;;;;;;7.39;76.77;101363.78;5041934;28;19978;-83
2023/12/12 06:38:56;;;;;;;28.35;15.10;;;;;;;7.06;76.94;101312.75;5047255;28;20108;-82
2023/12/12 06:41:22;;;;;;;26.63;14.48;;;;;;;7.50;76.89;101383.69;5039177;28;20036;-83
2023/12/12 06:43:48;;;;;;;27.35;14.77;;;;;;;7.36;76.79;101350.53;5052943;28;20016;-83
2023/12/12 06:46:18;;;;;;;29.67;15.63;;;;;;;7.24;76.59;101326.22;5048356;28;20037;-84
2023/12/12 06:48:43;;;;;;;28.05;15.35;;;;;;;7.46;76.58;101358.25;5050174;28;20044;-85
2023/12/12 06:51:09;;;;;;;27.65;14.77;;;;;;;7.19;76.48;101294.72;5039959;28;20029;-83
2023/12/12 06:53:35;;;;;;;28.63;14.45;;;;;;;7.61;76.29;101368.00;5050801;28;20033;-83
2023/12/12 06:56:02;;;;;;;28.17;14.95;;;;;;;7.56;76.39;101357.28;5043283;28;20029;-82
2023/12/12 06:58:28;;;;;;;26.48;14.48;;;;;;;7.47;76.53;101327.97;5052516;28;20703;-83
2023/12/12 07:00:54;;;;;;;;;;;;;;;7.63;76.28;101348.22;5058612;28;20029;-82
2023/12/12 07:03:21;;;;;;;29.08;14.77;;;;;;;7.60;76.59;101346.31;5072614;28;20443;-83
2023/12/12 07:05:51;;;;;;;26.60;14.32;;;;;;;7.54;76.68;101335.47;5050894;28;20116;-83
2023/12/12 07:08:18;;;;;;;27.73;14.27;;;;;;;7.51;76.38;101349.13;5051515;28;20029;-83
2023/12/12 07:10:45;;;;;;;27.40;14.85;;;;;;;7.36;76.69;101334.06;5048004;28;20033;-82
2023/12/12 07:13:11;;;;;;;29.38;14.85;;;;;;;7.27;76.24;101308.28;5048003;28;20067;-83
2023/12/12 07:15:38;;;;;;;27.13;14.50;;;;;;;7.41;76.40;101349.22;5050071;28;20036;-83
2023/12/12 07:18:08;;;;;;;27.65;14.80;;;;;;;7.56;76.31;101396.25;5032845;28;20044;-83
2023/12/12 07:20:33;;;;;;;29.08;16.20;;;;;;;7.41;76.71;101369.06;5033737;28;20036;-83
2023/12/12 07:22:59;;;;;;;30.27;15.50;;;;;;;7.38;76.59;101366.25;5039067;28;20026;-83
2023/12/12 07:25:25;;;;;;;28.67;14.30;;;;;;;7.22;76.43;101351.22;5037534;28;20071;-83
2023/12/12 07:27:51;;;;;;;27.83;14.63;;;;;;;7.43;76.51;101372.69;5031170;28;20033;-83
2023/12/12 07:30:16;;;;;;;28.60;15.55;;;;;;;7.40;76.54;101391.56;5056410;28;20517;-84
2023/12/12 07:32:42;;;;;;;29.23;15.68;;;;;;;7.56;76.63;101422.25;5077733;28;20028;-82
2023/12/12 07:35:09;;;;;;;29.55;15.57;;;;;;;7.41;76.53;101415.84;5070225;28;20040;-83
2023/12/12 07:37:36;;;;;;;31.40;15.90;;;;;;;7.20;76.28;101376.16;5072453;28;20028;-83
2023/12/12 07:40:04;;;;;;;28.85;15.38;;;;;;;7.53;76.57;101435.91;5079976;28;20056;-83
2023/12/12 07:42:30;;;;;;;27.92;15.48;;;;;;;7.49;77.04;101431.28;5052681;28;20036;-83
2023/12/12 07:44:57;;;;;;;29.05;15.50;;;;;;;7.30;76.82;101389.97;5039505;28;20446;-83
2023/12/12 07:47:23;;;;;;;29.50;15.32;;;;;;;7.51;76.91;101439.16;5045497;28;20057;-82
2023/12/12 07:49:49;;;;;;;29.23;15.50;;;;;;;7.37;76.60;101408.63;5076474;28;20050;-83
2023/12/12 07:52:15;;;;;;;32.55;16.25;;;;;;;7.28;76.61;101396.75;5065784;28;20040;-82
2023/12/12 07:54:43;;;;;;;32.35;16.52;;;;;;;7.20;76.60;101368.38;5062394;28;20029;-82
2023/12/12 07:57:09;;;;;;;30.45;15.27;;;;;;;7.50;76.52;101411.38;5040594;28;20478;-82
2023/12/12 07:59:35;;;;;;;30.88;15.98;;;;;;;7.39;76.43;101389.78;5058201;28;20094;-82
2023/12/12 08:02:01;;;;;;;32.08;15.95;;;;;;;7.01;76.52;101320.19;5046226;28;20650;-83
2023/12/12 08:04:27;;;;;;;30.88;15.75;;;;;;;7.41;76.46;101396.00;5045840;28;20068;-83
2023/12/12 08:07:02;;;;;;;31.33;15.80;;;;;;;7.51;76.62;101407.97;5047955;28;20028;-83
2023/12/12 08:09:29;;;;;;;29.52;16.08;;;;;;;7.22;76.43;101353.81;5070232;28;20036;-83
2023/12/12 08:11:58;;;;;;;34.88;16.48;;;;;;;7.42;76.46;101374.41;5061589;28;20137;-82
2023/12/12 08:14:24;;;;;;;29.95;16.15;;;;;;;7.20;76.50;101345.00;5050379;28;20036;-83
2023/12/12 08:16:50;;;;;;;30.23;14.73;;;;;;;7.30;76.44;101374.38;5045374;28;20063;-83
2023/12/12 08:19:29;;;;;;;29.52;15.63;;;;;;;7.25;76.66;101367.91;5029854;28;20503;-84
2023/12/12 08:21:55;;;;;;;30.73;15.75;;;;;;;7.59;76.40;101408.56;5033242;28;20037;-83
2023/12/12 08:24:21;;;;;;;29.52;15.30;;;;;;;7.46;76.48;101402.44;5066882;28;20033;-83
2023/12/12 08:26:46;;;;;;;30.27;15.27;;;;;;;7.14;76.69;101353.22;5066961;28;20075;-83
2023/12/12 08:29:14;;;;;;;29.98;14.93;;;;;;;7.25;76.47;101352.31;5065559;28;20127;-83
2023/12/12 08:31:40;;;;;;;29.17;15.32;;;;;;;7.52;76.56;101397.72;5056610;28;20039;-83
2023/12/12 08:34:06;;;;;;;30.25;15.82;;;;;;;7.42;76.45;101371.81;5067820;28;20016;-83
2023/12/12 08:36:32;;;;;;;28.42;14.65;;;;;;;7.43;76.59;101378.81;5056106;28;20036;-83
2023/12/12 08:38:59;;;;;;;30.33;15.23;;;;;;;7.51;76.75;101390.72;5069452;28;20492;-83
2023/12/12 08:41:30;;;;;;;30.45;16.33;;;;;;;7.57;76.52;101400.66;5052551;28;20025;-84
2023/12/12 08:43:57;;;;;;;31.42;16.83;;;;;;;7.38;76.67;101376.66;5040763;28;20033;-84
2023/12/12 08:46:26;;;;;;;32.97;15.73;;;;;;;7.47;76.51;101369.53;5051154;28;20020;-83
2023/12/12 08:48:58;;;;;;;30.55;16.25;;;;;;;7.60;76.24;101392.16;5035520;28;20029;-83
2023/12/12 08:51:25;;;;;;;27.55;14.80;;;;;;;7.48;76.57;101374.88;5056164;28;20028;-84
2023/12/12 08:53:54;;;;;;;29.92;16.08;;;;;;;7.49;76.34;101362.78;5050632;28;20032;-84
2023/12/12 08:56:19;;;;;;;27.77;15.35;;;;;;;7.37;76.64;101338.47;5069368;28;20020;-83
2023/12/12 08:58:47;;;;;;;31.48;15.43;;;;;;;7.60;76.35;101382.69;5068982;28;20495;-84
2023/12/12 09:01:14;;;;;;;30.48;15.88;;;;;;;7.30;76.15;101327.63;5074414;28;20028;-83
2023/12/12 09:03:40;;;;;;;28.58;14.38;;;;;;;7.73;75.78;101380.22;5059735;28;20024;-83
2023/12/12 09:06:07;;;;;;;31.35;15.38;;;;;;;7.60;76.48;101382.69;5067613;28;20013;-84
2023/12/12 09:08:33;;;;;;;30.98;15.82;;;;;;;7.46;76.46;101341.75;5048923;28;20638;-84
2023/12/12 09:10:59;;;;;;;29.95;14.95;;;;;;;7.21;76.37;101295.72;5043274;28;20035;-83
2023/12/12 09:13:26;;;;;;;27.88;15.73;;;;;;;7.78;75.77;101374.47;5030044;28;20021;-84
2023/12/12 09:15:52;;;;;;;27.80;15.05;;;;;;;7.24;76.07;101290.78;5051948;28;20039;-84
2023/12/12 09:18:17;;;;;;;28.02;14.93;;;;;;;7.42;75.76;101305.94;5067212;28;20410;-83
2023/12/12 09:20:44;;;;;;;28.73;14.95;;;;;;;7.70;76.16;101369.63;5056499;28;20036;-84
2023/12/12 09:23:09;;;;;;;29.38;14.48;;;;;;;7.10;76.08;101274.16;5055103;28;20056;-84
2023/12/12 09:25:35;;;;;;;26.67;14.52;;;;;;;7.36;76.37;101321.97;5075389;28;20115;-83
2023/12/12 09:28:01;;;;;;;27.75;14.77;;;;;;;7.44;76.50;101330.34;5038027;28;20107;-83
2023/12/12 09:30:27;;;;;;;30.20;14.77;;;;;;;7.45;76.43;101325.28;5067661;28;20048;-83
2023/12/12 09:32:52;;;;;;;27.00;14.50;;;;;;;7.16;76.03;101271.13;5070292;28;20123;-84
2023/12/12 09:35:18;;;;;;;27.73;14.27;;;;;;;7.47;76.25;101331.50;5043837;28;20037;-84
2023/12/12 09:37:44;;;;;;;25.92;14.82;;;;;;;7.36;76.39;101314.16;5076146;28;20546;-84
2023/12/12 09:40:10;;;;;;;28.25;14.32;;;;;;;7.68;75.87;101350.41;5061816;28;20519;-83
2023/12/12 09:42:36;;;;;;;27.45;15.15;;;;;;;7.62;76.40;101362.94;5078604;28;20040;-83
2023/12/12 09:45:04;;;;;;;27.05;15.27;;;;;;;7.52;76.44;101350.94;5070136;28;20031;-83
2023/12/12 09:47:33;;;;;;;25.67;13.98;;;;;;;7.59;76.06;101344.50;5053775;28;20036;-83
2023/12/12 09:49:59;;;;;;;25.98;14.07;;;;;;;7.69;75.76;101326.19;5052870;28;20035;-84
2023/12/12 09:52:26;;;;;;;26.48;14.43;;;;;;;7.70;75.97;101345.28;5069605;28;20036;-83
2023/12/12 09:54:53;;;;;;;26.35;14.05;;;;;;;7.53;75.76;101316.38;5038513;28;20033;-84
2023/12/12 09:57:19;;;;;;;24.75;13.48;;;;;;;7.69;75.92;101338.28;5052836;28;20060;-84
2023/12/12 09:59:45;;;;;;;24.70;14.02;;;;;;;7.69;75.83;101328.78;5066342;28;20124;-84
2023/12/12 10:02:23;;;;;;;26.05;14.60;;;;;;;7.84;75.61;101343.72;5070479;28;20032;-84
2023/12/12 10:04:51;;;;;;;28.10;14.93;;;;;;;7.93;75.45;101344.41;5054750;28;20035;-84
2023/12/12 10:07:18;;;;;;;26.20;14.63;;;;;;;7.70;75.63;101330.63;5040868;28;20511;-83
2023/12/12 10:09:44;;;;;;;25.00;14.57;;;;;;;7.69;75.90;101336.59;5054555;28;20107;-84
2023/12/12 10:12:10;;;;;;;25.00;14.20;;;;;;;7.68;75.75;101324.41;5053421;28;20471;-83
2023/12/12 10:14:40;;;;;;;25.15;14.63;;;;;;;7.95;75.03;101341.13;5087622;28;20555;-84
2023/12/12 10:17:06;;;;;;;25.63;13.55;;;;;;;7.79;75.36;101342.47;5043273;28;20029;-83
2023/12/12 10:19:32;;;;;;;25.30;14.13;;;;;;;7.71;75.38;101309.03;5069628;28;20032;-83
2023/12/12 10:22:04;;;;;;;24.48;14.18;;;;;;;7.42;76.31;101272.16;5046652;28;20059;-83
2023/12/12 10:24:29;;;;;;;24.08;13.77;;;;;;;7.72;75.70;101328.09;5062421;28;20064;-83
2023/12/12 10:26:56;;;;;;;26.33;14.85;;;;;;;7.38;76.22;101284.00;5071907;28;20071;-83
2023/12/12 10:29:22;;;;;;;26.33;14.20;;;;;;;7.70;76.08;101314.09;5070255;28;20093;-84
2023/12/12 10:31:48;;;;;;;25.35;14.30;;;;;;;7.32;75.81;101236.78;5041310;28;20024;-83
2023/12/12 10:34:17;;;;;;;25.98;13.80;;;;;;;7.77;75.33;101303.38;5070501;28;20490;-84
2023/12/12 10:36:42;;;;;;;28.05;14.50;;;;;;;7.48;75.64;101273.53;5071454;28;20051;-84
2023/12/12 10:39:12;;;;;;;25.83;14.57;;;;;;;7.62;75.59;101289.22;5074735;28;20556;-83
2023/12/12 10:41:38;;;;;;;28.05;14.32;;;;;;;7.63;75.88;101302.34;5047085;28;20482;-84
2023/12/12 10:44:08;;;;;;;26.58;14.70;;;;;;;7.66;75.70;101296.47;5053847;28;20035;-85
2023/12/12 10:46:39;;;;;;;30.73;15.63;;;;;;;7.37;76.04;101250.16;5052911;28;20028;-85
2023/12/12 10:49:07;;;;;;;26.08;14.63;;;;;;;7.74;75.99;101309.22;5053719;28;20070;-85
2023/12/12 10:51:33;;;;;;;29.17;15.57;;;;;;;7.49;76.14;101269.22;5066169;28;20056;-85
2023/12/12 10:53:59;;;;;;;24.85;14.15;;;;;;;7.67;75.79;101293.09;5052654;28;20125;-85
2023/12/12 10:56:24;;;;;;;29.25;15.07;;;;;;;7.66;76.10;101302.59;5047204;28;20047;-85
2023/12/12 11:01:35;;;;;;;28.08;15.27;;;;;;;7.59;76.08;101274.31;5048574;28;20070;-86
2023/12/12 11:04:05;;;;;;;28.42;15.75;;;;;;;7.38;76.01;101244.16;5078793;28;20103;-86
2023/12/12 11:06:32;;;;;;;28.02;15.25;;;;;;;7.68;76.41;101298.41;5059288;28;20542;-85
2023/12/12 11:08:57;;;;;;;26.73;15.40;;;;;;;7.33;76.25;101249.91;5053171;28;20028;-85
2023/12/12 11:11:29;;;;;;;27.08;14.75;;;;;;;7.36;76.35;101244.03;5051950;28;20040;-85
2023/12/12 11:13:55;;;;;;;28.75;15.90;;;;;;;7.38;76.70;101265.81;5067024;28;20067;-85
2023/12/12 11:16:21;;;;;;;;;;;;;;;7.78;76.23;101296.47;5041445;28;20052;-85
2023/12/12 11:18:48;;;;;;;27.15;14.60;;;;;;;7.70;75.95;101298.50;5022727;28;20500;-85